sensor_id;sensor_type;location;lat;lon;timestamp;P1;durP1;ratioP1;P2;durP2;ratioP2
14768;SDS011;7476;49.404;11.152;2022-11-03T00:00:21;12.57;;;6.13;;
14768;SDS011;7476;49.404;11.152;2022-11-03T00:02:48;9.20;;;5.90;;
14768;SDS011;7476;49.404;11.152;2022-11-03T00:05:15;10.30;;;6.33;;
14768;SDS011;7476;49.404;11.152;2022-11-03T00:08:00;6.87;;;5.70;;
14768;SDS011;7476;49.404;11.152;2022-11-03T00:10:27;8.53;;;5.67;;
14768;SDS011;7476;49.404;11.152;2022-11-03T00:12:54;10.67;;;6.50;;
14768;SDS011;7476;49.404;11.152;2022-11-03T00:15:22;10.13;;;5.40;;
14768;SDS011;7476;49.404;11.152;2022-11-03T00:17:49;13.57;;;6.10;;
14768;SDS011;7476;49.404;11.152;2022-11-03T00:20:16;8.00;;;5.30;;
14768;SDS011;7476;49.404;11.152;2022-11-03T00:22:42;10.83;;;6.37;;
14768;SDS011;7476;49.404;11.152;2022-11-03T00:25:09;10.37;;;6.30;;
14768;SDS011;7476;49.404;11.152;2022-11-03T00:27:36;9.43;;;6.20;;
14768;SDS011;7476;49.404;11.152;2022-11-03T00:30:03;9.73;;;5.37;;
14768;SDS011;7476;49.404;11.152;2022-11-03T00:32:31;9.97;;;5.97;;
14768;SDS011;7476;49.404;11.152;2022-11-03T00:34:58;9.70;;;5.53;;
14768;SDS011;7476;49.404;11.152;2022-11-03T00:37:25;11.37;;;5.77;;
14768;SDS011;7476;49.404;11.152;2022-11-03T00:39:51;6.67;;;5.47;;
14768;SDS011;7476;49.404;11.152;2022-11-03T00:42:18;8.03;;;6.00;;
14768;SDS011;7476;49.404;11.152;2022-11-03T00:44:45;8.93;;;5.97;;
14768;SDS011;7476;49.404;11.152;2022-11-03T00:47:11;7.90;;;5.60;;
14768;SDS011;7476;49.404;11.152;2022-11-03T00:49:39;10.17;;;5.77;;
14768;SDS011;7476;49.404;11.152;2022-11-03T00:52:06;10.53;;;5.97;;
14768;SDS011;7476;49.404;11.152;2022-11-03T00:54:32;10.37;;;6.17;;
14768;SDS011;7476;49.404;11.152;2022-11-03T00:56:59;11.50;;;5.63;;
14768;SDS011;7476;49.404;11.152;2022-11-03T00:59:26;13.53;;;6.07;;
14768;SDS011;7476;49.404;11.152;2022-11-03T01:01:53;11.53;;;6.10;;
14768;SDS011;7476;49.404;11.152;2022-11-03T01:04:19;10.07;;;5.60;;
14768;SDS011;7476;49.404;11.152;2022-11-03T01:07:05;8.77;;;5.57;;
14768;SDS011;7476;49.404;11.152;2022-11-03T01:09:33;9.60;;;5.30;;
14768;SDS011;7476;49.404;11.152;2022-11-03T01:12:02;9.77;;;5.37;;
14768;SDS011;7476;49.404;11.152;2022-11-03T01:14:31;10.07;;;5.70;;
14768;SDS011;7476;49.404;11.152;2022-11-03T01:16:59;9.50;;;5.70;;
14768;SDS011;7476;49.404;11.152;2022-11-03T01:19:26;11.03;;;5.63;;
14768;SDS011;7476;49.404;11.152;2022-11-03T01:21:53;12.03;;;6.13;;
14768;SDS011;7476;49.404;11.152;2022-11-03T01:24:21;11.97;;;6.00;;
14768;SDS011;7476;49.404;11.152;2022-11-03T01:26:48;7.20;;;5.77;;
14768;SDS011;7476;49.404;11.152;2022-11-03T01:29:15;8.50;;;5.47;;
14768;SDS011;7476;49.404;11.152;2022-11-03T01:31:42;6.90;;;5.33;;
14768;SDS011;7476;49.404;11.152;2022-11-03T01:34:11;8.60;;;5.50;;
14768;SDS011;7476;49.404;11.152;2022-11-03T01:36:40;8.73;;;5.67;;
14768;SDS011;7476;49.404;11.152;2022-11-03T01:39:08;6.93;;;5.07;;
14768;SDS011;7476;49.404;11.152;2022-11-03T01:41:37;7.40;;;5.23;;
14768;SDS011;7476;49.404;11.152;2022-11-03T01:44:24;9.23;;;5.37;;
14768;SDS011;7476;49.404;11.152;2022-11-03T01:46:53;8.30;;;4.73;;
14768;SDS011;7476;49.404;11.152;2022-11-03T01:49:26;8.13;;;5.03;;
14768;SDS011;7476;49.404;11.152;2022-11-03T01:51:59;6.20;;;4.80;;
14768;SDS011;7476;49.404;11.152;2022-11-03T01:54:28;8.90;;;4.97;;
14768;SDS011;7476;49.404;11.152;2022-11-03T01:56:58;8.40;;;4.97;;
14768;SDS011;7476;49.404;11.152;2022-11-03T01:59:25;6.80;;;5.07;;
14768;SDS011;7476;49.404;11.152;2022-11-03T02:01:53;7.73;;;4.73;;
14768;SDS011;7476;49.404;11.152;2022-11-03T02:04:21;6.73;;;5.10;;
14768;SDS011;7476;49.404;11.152;2022-11-03T02:06:52;7.30;;;5.57;;
14768;SDS011;7476;49.404;11.152;2022-11-03T02:09:24;7.03;;;5.07;;
14768;SDS011;7476;49.404;11.152;2022-11-03T02:11:51;9.33;;;5.00;;
14768;SDS011;7476;49.404;11.152;2022-11-03T02:14:34;10.03;;;5.53;;
14768;SDS011;7476;49.404;11.152;2022-11-03T02:17:06;8.20;;;4.80;;
14768;SDS011;7476;49.404;11.152;2022-11-03T02:19:36;8.20;;;4.90;;
14768;SDS011;7476;49.404;11.152;2022-11-03T02:25:01;11.53;;;5.70;;
14768;SDS011;7476;49.404;11.152;2022-11-03T02:27:41;6.17;;;5.40;;
14768;SDS011;7476;49.404;11.152;2022-11-03T02:30:08;9.33;;;5.67;;
14768;SDS011;7476;49.404;11.152;2022-11-03T02:32:37;10.80;;;5.10;;
14768;SDS011;7476;49.404;11.152;2022-11-03T02:35:10;11.60;;;5.97;;
14768;SDS011;7476;49.404;11.152;2022-11-03T02:37:45;9.17;;;5.40;;
14768;SDS011;7476;49.404;11.152;2022-11-03T02:40:15;14.33;;;5.43;;
14768;SDS011;7476;49.404;11.152;2022-11-03T02:42:47;6.90;;;4.60;;
14768;SDS011;7476;49.404;11.152;2022-11-03T02:45:18;7.77;;;4.80;;
14768;SDS011;7476;49.404;11.152;2022-11-03T02:47:47;7.13;;;4.70;;
14768;SDS011;7476;49.404;11.152;2022-11-03T02:50:15;7.93;;;4.83;;
14768;SDS011;7476;49.404;11.152;2022-11-03T02:52:44;8.30;;;4.70;;
14768;SDS011;7476;49.404;11.152;2022-11-03T02:55:13;9.70;;;5.10;;
14768;SDS011;7476;49.404;11.152;2022-11-03T02:57:48;7.93;;;4.87;;
14768;SDS011;7476;49.404;11.152;2022-11-03T03:00:20;9.43;;;5.60;;
14768;SDS011;7476;49.404;11.152;2022-11-03T03:02:50;9.77;;;6.10;;
14768;SDS011;7476;49.404;11.152;2022-11-03T03:05:22;8.50;;;5.57;;
14768;SDS011;7476;49.404;11.152;2022-11-03T03:07:53;7.47;;;4.80;;
14768;SDS011;7476;49.404;11.152;2022-11-03T03:10:24;8.87;;;5.10;;
14768;SDS011;7476;49.404;11.152;2022-11-03T03:12:56;6.83;;;4.97;;
14768;SDS011;7476;49.404;11.152;2022-11-03T03:15:27;10.33;;;5.17;;
14768;SDS011;7476;49.404;11.152;2022-11-03T03:18:04;9.53;;;5.37;;
14768;SDS011;7476;49.404;11.152;2022-11-03T03:20:38;7.47;;;5.27;;
14768;SDS011;7476;49.404;11.152;2022-11-03T03:23:12;8.83;;;4.77;;
14768;SDS011;7476;49.404;11.152;2022-11-03T03:25:44;8.13;;;5.00;;
14768;SDS011;7476;49.404;11.152;2022-11-03T03:28:18;6.90;;;5.20;;
14768;SDS011;7476;49.404;11.152;2022-11-03T03:30:48;10.90;;;5.30;;
14768;SDS011;7476;49.404;11.152;2022-11-03T03:33:17;7.47;;;5.33;;
14768;SDS011;7476;49.404;11.152;2022-11-03T03:35:45;10.17;;;5.00;;
14768;SDS011;7476;49.404;11.152;2022-11-03T03:38:15;6.07;;;4.80;;
14768;SDS011;7476;49.404;11.152;2022-11-03T03:40:47;9.57;;;4.93;;
14768;SDS011;7476;49.404;11.152;2022-11-03T03:43:17;8.57;;;5.10;;
14768;SDS011;7476;49.404;11.152;2022-11-03T03:45:48;9.37;;;5.30;;
14768;SDS011;7476;49.404;11.152;2022-11-03T03:48:18;7.20;;;4.77;;
14768;SDS011;7476;49.404;11.152;2022-11-03T03:50:45;7.47;;;4.83;;
14768;SDS011;7476;49.404;11.152;2022-11-03T03:53:14;6.53;;;4.77;;
14768;SDS011;7476;49.404;11.152;2022-11-03T03:55:44;7.63;;;4.87;;
14768;SDS011;7476;49.404;11.152;2022-11-03T03:58:13;6.77;;;4.73;;
14768;SDS011;7476;49.404;11.152;2022-11-03T04:00:42;7.73;;;5.13;;
14768;SDS011;7476;49.404;11.152;2022-11-03T04:03:12;9.17;;;5.20;;
14768;SDS011;7476;49.404;11.152;2022-11-03T04:05:40;8.97;;;4.77;;
14768;SDS011;7476;49.404;11.152;2022-11-03T04:08:07;6.40;;;4.83;;
14768;SDS011;7476;49.404;11.152;2022-11-03T04:10:34;7.67;;;5.20;;
14768;SDS011;7476;49.404;11.152;2022-11-03T04:13:01;8.30;;;5.33;;
14768;SDS011;7476;49.404;11.152;2022-11-03T04:15:47;8.93;;;5.23;;
14768;SDS011;7476;49.404;11.152;2022-11-03T04:18:31;9.10;;;5.27;;
14768;SDS011;7476;49.404;11.152;2022-11-03T04:21:24;9.20;;;5.07;;
14768;SDS011;7476;49.404;11.152;2022-11-03T04:24:08;8.93;;;5.50;;
14768;SDS011;7476;49.404;11.152;2022-11-03T04:26:35;9.03;;;5.57;;
14768;SDS011;7476;49.404;11.152;2022-11-03T04:29:03;7.70;;;5.03;;
14768;SDS011;7476;49.404;11.152;2022-11-03T04:31:34;7.50;;;5.10;;
14768;SDS011;7476;49.404;11.152;2022-11-03T04:34:02;8.13;;;5.27;;
14768;SDS011;7476;49.404;11.152;2022-11-03T04:36:30;8.43;;;4.80;;
14768;SDS011;7476;49.404;11.152;2022-11-03T04:38:56;10.63;;;5.20;;
14768;SDS011;7476;49.404;11.152;2022-11-03T04:41:24;8.83;;;5.43;;
14768;SDS011;7476;49.404;11.152;2022-11-03T04:43:54;9.83;;;5.03;;
14768;SDS011;7476;49.404;11.152;2022-11-03T04:46:23;9.63;;;5.10;;
14768;SDS011;7476;49.404;11.152;2022-11-03T04:48:53;6.87;;;5.27;;
14768;SDS011;7476;49.404;11.152;2022-11-03T04:51:23;8.93;;;4.97;;
14768;SDS011;7476;49.404;11.152;2022-11-03T04:53:53;7.93;;;5.13;;
14768;SDS011;7476;49.404;11.152;2022-11-03T04:56:21;8.07;;;5.30;;
14768;SDS011;7476;49.404;11.152;2022-11-03T04:58:50;11.17;;;6.00;;
14768;SDS011;7476;49.404;11.152;2022-11-03T05:01:18;7.27;;;5.20;;
14768;SDS011;7476;49.404;11.152;2022-11-03T05:03:47;8.20;;;5.50;;
14768;SDS011;7476;49.404;11.152;2022-11-03T05:06:18;8.40;;;5.27;;
14768;SDS011;7476;49.404;11.152;2022-11-03T05:08:47;8.23;;;5.50;;
14768;SDS011;7476;49.404;11.152;2022-11-03T05:11:18;10.57;;;5.90;;
14768;SDS011;7476;49.404;11.152;2022-11-03T05:13:49;8.43;;;5.00;;
14768;SDS011;7476;49.404;11.152;2022-11-03T05:16:18;7.60;;;4.57;;
14768;SDS011;7476;49.404;11.152;2022-11-03T05:18:45;10.10;;;5.30;;
14768;SDS011;7476;49.404;11.152;2022-11-03T05:21:15;10.37;;;4.90;;
14768;SDS011;7476;49.404;11.152;2022-11-03T05:23:47;9.07;;;4.90;;
14768;SDS011;7476;49.404;11.152;2022-11-03T05:26:17;9.30;;;5.17;;
14768;SDS011;7476;49.404;11.152;2022-11-03T05:28:46;8.63;;;5.50;;
14768;SDS011;7476;49.404;11.152;2022-11-03T05:31:23;9.37;;;5.77;;
14768;SDS011;7476;49.404;11.152;2022-11-03T05:33:53;9.63;;;5.00;;
14768;SDS011;7476;49.404;11.152;2022-11-03T05:36:24;12.30;;;6.53;;
14768;SDS011;7476;49.404;11.152;2022-11-03T05:38:53;10.20;;;5.53;;
14768;SDS011;7476;49.404;11.152;2022-11-03T05:41:23;10.00;;;5.57;;
14768;SDS011;7476;49.404;11.152;2022-11-03T05:43:53;11.10;;;5.53;;
14768;SDS011;7476;49.404;11.152;2022-11-03T05:46:22;8.17;;;5.60;;
14768;SDS011;7476;49.404;11.152;2022-11-03T05:48:49;9.83;;;5.40;;
14768;SDS011;7476;49.404;11.152;2022-11-03T05:51:18;7.63;;;5.20;;
14768;SDS011;7476;49.404;11.152;2022-11-03T05:53:49;9.70;;;5.13;;
14768;SDS011;7476;49.404;11.152;2022-11-03T05:56:19;7.37;;;4.87;;
14768;SDS011;7476;49.404;11.152;2022-11-03T05:58:48;11.87;;;5.50;;
14768;SDS011;7476;49.404;11.152;2022-11-03T06:01:18;8.37;;;5.87;;
14768;SDS011;7476;49.404;11.152;2022-11-03T06:03:49;11.43;;;5.90;;
14768;SDS011;7476;49.404;11.152;2022-11-03T06:06:17;7.23;;;5.47;;
14768;SDS011;7476;49.404;11.152;2022-11-03T06:08:49;9.03;;;5.67;;
14768;SDS011;7476;49.404;11.152;2022-11-03T06:11:23;6.93;;;5.00;;
14768;SDS011;7476;49.404;11.152;2022-11-03T06:13:53;13.10;;;5.80;;
14768;SDS011;7476;49.404;11.152;2022-11-03T06:16:31;11.03;;;4.90;;
14768;SDS011;7476;49.404;11.152;2022-11-03T06:19:13;8.20;;;5.77;;
14768;SDS011;7476;49.404;11.152;2022-11-03T06:21:48;11.17;;;6.13;;
14768;SDS011;7476;49.404;11.152;2022-11-03T06:24:18;11.57;;;5.93;;
14768;SDS011;7476;49.404;11.152;2022-11-03T06:26:46;9.00;;;5.63;;
14768;SDS011;7476;49.404;11.152;2022-11-03T06:29:17;10.53;;;6.37;;
14768;SDS011;7476;49.404;11.152;2022-11-03T06:31:45;12.90;;;6.53;;
14768;SDS011;7476;49.404;11.152;2022-11-03T06:34:29;8.63;;;6.10;;
14768;SDS011;7476;49.404;11.152;2022-11-03T06:37:04;11.53;;;6.50;;
14768;SDS011;7476;49.404;11.152;2022-11-03T06:39:42;13.17;;;7.90;;
14768;SDS011;7476;49.404;11.152;2022-11-03T06:42:13;11.00;;;7.00;;
14768;SDS011;7476;49.404;11.152;2022-11-03T06:44:41;13.53;;;7.00;;
14768;SDS011;7476;49.404;11.152;2022-11-03T06:47:15;12.07;;;7.20;;
14768;SDS011;7476;49.404;11.152;2022-11-03T06:49:47;11.33;;;6.93;;
14768;SDS011;7476;49.404;11.152;2022-11-03T06:52:19;15.43;;;6.83;;
14768;SDS011;7476;49.404;11.152;2022-11-03T06:57:50;10.10;;;6.77;;
14768;SDS011;7476;49.404;11.152;2022-11-03T07:00:20;10.73;;;6.40;;
14768;SDS011;7476;49.404;11.152;2022-11-03T07:02:52;10.60;;;7.00;;
14768;SDS011;7476;49.404;11.152;2022-11-03T07:05:24;12.87;;;6.50;;
14768;SDS011;7476;49.404;11.152;2022-11-03T07:07:52;10.87;;;6.07;;
14768;SDS011;7476;49.404;11.152;2022-11-03T07:10:23;13.50;;;7.00;;
14768;SDS011;7476;49.404;11.152;2022-11-03T07:12:51;10.87;;;6.30;;
14768;SDS011;7476;49.404;11.152;2022-11-03T07:15:22;11.27;;;6.53;;
14768;SDS011;7476;49.404;11.152;2022-11-03T07:17:52;10.77;;;6.70;;
14768;SDS011;7476;49.404;11.152;2022-11-03T07:20:20;10.70;;;7.10;;
14768;SDS011;7476;49.404;11.152;2022-11-03T07:22:47;11.57;;;7.37;;
14768;SDS011;7476;49.404;11.152;2022-11-03T07:25:16;11.63;;;7.20;;
14768;SDS011;7476;49.404;11.152;2022-11-03T07:27:45;11.70;;;7.37;;
14768;SDS011;7476;49.404;11.152;2022-11-03T07:30:18;10.87;;;7.10;;
14768;SDS011;7476;49.404;11.152;2022-11-03T07:32:46;10.80;;;7.13;;
14768;SDS011;7476;49.404;11.152;2022-11-03T07:35:20;11.40;;;7.50;;
14768;SDS011;7476;49.404;11.152;2022-11-03T07:37:53;11.00;;;7.17;;
14768;SDS011;7476;49.404;11.152;2022-11-03T07:40:21;11.43;;;7.60;;
14768;SDS011;7476;49.404;11.152;2022-11-03T07:42:50;13.13;;;8.03;;
14768;SDS011;7476;49.404;11.152;2022-11-03T07:45:34;12.30;;;8.10;;
14768;SDS011;7476;49.404;11.152;2022-11-03T07:48:17;10.87;;;7.70;;
14768;SDS011;7476;49.404;11.152;2022-11-03T07:50:46;10.87;;;7.60;;
14768;SDS011;7476;49.404;11.152;2022-11-03T07:53:13;12.77;;;8.43;;
14768;SDS011;7476;49.404;11.152;2022-11-03T07:55:45;10.53;;;7.87;;
14768;SDS011;7476;49.404;11.152;2022-11-03T07:58:21;13.13;;;8.50;;
14768;SDS011;7476;49.404;11.152;2022-11-03T08:00:52;13.40;;;8.70;;
14768;SDS011;7476;49.404;11.152;2022-11-03T08:06:09;12.63;;;8.43;;
14768;SDS011;7476;49.404;11.152;2022-11-03T08:08:36;11.70;;;8.53;;
14768;SDS011;7476;49.404;11.152;2022-11-03T08:11:02;11.33;;;8.57;;
14768;SDS011;7476;49.404;11.152;2022-11-03T08:13:31;11.23;;;8.37;;
14768;SDS011;7476;49.404;11.152;2022-11-03T08:15:58;10.23;;;7.40;;
14768;SDS011;7476;49.404;11.152;2022-11-03T08:18:24;13.43;;;8.13;;
14768;SDS011;7476;49.404;11.152;2022-11-03T08:20:51;11.00;;;8.53;;
14768;SDS011;7476;49.404;11.152;2022-11-03T08:23:18;10.20;;;8.10;;
14768;SDS011;7476;49.404;11.152;2022-11-03T08:25:45;11.33;;;8.20;;
14768;SDS011;7476;49.404;11.152;2022-11-03T08:28:11;11.43;;;8.10;;
14768;SDS011;7476;49.404;11.152;2022-11-03T08:30:40;10.80;;;7.33;;
14768;SDS011;7476;49.404;11.152;2022-11-03T08:33:06;10.07;;;6.77;;
14768;SDS011;7476;49.404;11.152;2022-11-03T08:35:33;10.47;;;5.63;;
14768;SDS011;7476;49.404;11.152;2022-11-03T08:38:00;9.13;;;6.07;;
14768;SDS011;7476;49.404;11.152;2022-11-03T08:40:27;8.00;;;5.50;;
14768;SDS011;7476;49.404;11.152;2022-11-03T08:42:53;7.60;;;4.20;;
14768;SDS011;7476;49.404;11.152;2022-11-03T08:45:20;7.07;;;4.57;;
14768;SDS011;7476;49.404;11.152;2022-11-03T08:47:48;6.57;;;4.00;;
14768;SDS011;7476;49.404;11.152;2022-11-03T08:50:15;6.33;;;3.87;;
14768;SDS011;7476;49.404;11.152;2022-11-03T08:52:42;5.43;;;3.63;;
14768;SDS011;7476;49.404;11.152;2022-11-03T08:55:08;6.37;;;3.47;;
14768;SDS011;7476;49.404;11.152;2022-11-03T08:57:35;5.53;;;3.33;;
14768;SDS011;7476;49.404;11.152;2022-11-03T09:00:02;7.87;;;3.17;;
14768;SDS011;7476;49.404;11.152;2022-11-03T09:02:30;7.37;;;3.00;;
14768;SDS011;7476;49.404;11.152;2022-11-03T09:04:58;4.33;;;2.73;;
14768;SDS011;7476;49.404;11.152;2022-11-03T09:07:25;4.33;;;3.23;;
14768;SDS011;7476;49.404;11.152;2022-11-03T09:09:51;5.33;;;2.87;;
14768;SDS011;7476;49.404;11.152;2022-11-03T09:12:18;5.47;;;2.90;;
14768;SDS011;7476;49.404;11.152;2022-11-03T09:14:45;4.07;;;2.73;;
14768;SDS011;7476;49.404;11.152;2022-11-03T09:17:12;5.80;;;2.97;;
14768;SDS011;7476;49.404;11.152;2022-11-03T09:19:38;5.43;;;2.43;;
14768;SDS011;7476;49.404;11.152;2022-11-03T09:22:06;5.70;;;2.90;;
14768;SDS011;7476;49.404;11.152;2022-11-03T09:24:33;5.47;;;2.57;;
14768;SDS011;7476;49.404;11.152;2022-11-03T09:27:00;5.17;;;3.00;;
14768;SDS011;7476;49.404;11.152;2022-11-03T09:29:27;4.20;;;2.80;;
14768;SDS011;7476;49.404;11.152;2022-11-03T09:31:54;3.83;;;2.40;;
14768;SDS011;7476;49.404;11.152;2022-11-03T09:34:20;5.20;;;2.60;;
14768;SDS011;7476;49.404;11.152;2022-11-03T09:36:47;4.70;;;2.80;;
14768;SDS011;7476;49.404;11.152;2022-11-03T09:39:15;7.03;;;3.03;;
14768;SDS011;7476;49.404;11.152;2022-11-03T09:41:42;5.77;;;3.50;;
14768;SDS011;7476;49.404;11.152;2022-11-03T09:44:08;5.77;;;3.43;;
14768;SDS011;7476;49.404;11.152;2022-11-03T09:46:36;5.60;;;3.70;;
14768;SDS011;7476;49.404;11.152;2022-11-03T09:49:03;8.10;;;3.43;;
14768;SDS011;7476;49.404;11.152;2022-11-03T09:51:30;6.23;;;3.50;;
14768;SDS011;7476;49.404;11.152;2022-11-03T09:54:00;5.97;;;3.57;;
14768;SDS011;7476;49.404;11.152;2022-11-03T09:56:30;7.23;;;3.70;;
14768;SDS011;7476;49.404;11.152;2022-11-03T09:59:01;5.73;;;3.60;;
14768;SDS011;7476;49.404;11.152;2022-11-03T10:01:36;3.47;;;3.17;;
14768;SDS011;7476;49.404;11.152;2022-11-03T10:04:03;5.77;;;3.90;;
14768;SDS011;7476;49.404;11.152;2022-11-03T10:06:29;5.77;;;3.10;;
14768;SDS011;7476;49.404;11.152;2022-11-03T10:08:56;6.10;;;3.20;;
14768;SDS011;7476;49.404;11.152;2022-11-03T10:11:23;5.27;;;3.00;;
14768;SDS011;7476;49.404;11.152;2022-11-03T10:13:52;6.67;;;3.87;;
14768;SDS011;7476;49.404;11.152;2022-11-03T10:16:22;7.43;;;3.40;;
14768;SDS011;7476;49.404;11.152;2022-11-03T10:18:50;4.97;;;3.20;;
14768;SDS011;7476;49.404;11.152;2022-11-03T10:21:18;5.67;;;3.43;;
14768;SDS011;7476;49.404;11.152;2022-11-03T10:23:46;6.37;;;3.50;;
14768;SDS011;7476;49.404;11.152;2022-11-03T10:26:15;8.00;;;3.90;;
14768;SDS011;7476;49.404;11.152;2022-11-03T10:28:57;5.70;;;3.53;;
14768;SDS011;7476;49.404;11.152;2022-11-03T10:31:30;5.77;;;3.67;;
14768;SDS011;7476;49.404;11.152;2022-11-03T10:34:00;5.83;;;3.50;;
14768;SDS011;7476;49.404;11.152;2022-11-03T10:36:28;6.07;;;3.67;;
14768;SDS011;7476;49.404;11.152;2022-11-03T10:38:56;6.30;;;3.63;;
14768;SDS011;7476;49.404;11.152;2022-11-03T10:41:24;6.63;;;4.03;;
14768;SDS011;7476;49.404;11.152;2022-11-03T10:44:14;6.20;;;3.77;;
14768;SDS011;7476;49.404;11.152;2022-11-03T10:46:54;6.53;;;4.07;;
14768;SDS011;7476;49.404;11.152;2022-11-03T10:49:21;5.47;;;3.60;;
14768;SDS011;7476;49.404;11.152;2022-11-03T10:51:49;5.47;;;3.27;;
14768;SDS011;7476;49.404;11.152;2022-11-03T10:54:18;6.47;;;3.47;;
14768;SDS011;7476;49.404;11.152;2022-11-03T10:56:46;6.90;;;3.80;;
14768;SDS011;7476;49.404;11.152;2022-11-03T10:59:16;5.83;;;4.20;;
14768;SDS011;7476;49.404;11.152;2022-11-03T11:01:44;5.33;;;3.60;;
14768;SDS011;7476;49.404;11.152;2022-11-03T11:04:12;6.10;;;3.60;;
14768;SDS011;7476;49.404;11.152;2022-11-03T11:06:41;5.10;;;3.63;;
14768;SDS011;7476;49.404;11.152;2022-11-03T11:09:08;5.03;;;3.80;;
14768;SDS011;7476;49.404;11.152;2022-11-03T11:11:37;6.37;;;3.40;;
14768;SDS011;7476;49.404;11.152;2022-11-03T11:14:20;5.13;;;3.40;;
14768;SDS011;7476;49.404;11.152;2022-11-03T11:16:49;4.37;;;3.40;;
14768;SDS011;7476;49.404;11.152;2022-11-03T11:19:17;6.20;;;3.90;;
14768;SDS011;7476;49.404;11.152;2022-11-03T11:24:54;7.97;;;3.97;;
14768;SDS011;7476;49.404;11.152;2022-11-03T11:33:25;5.37;;;3.17;;
14768;SDS011;7476;49.404;11.152;2022-11-03T11:36:03;5.03;;;3.63;;
14768;SDS011;7476;49.404;11.152;2022-11-03T11:38:54;8.57;;;4.07;;
14768;SDS011;7476;49.404;11.152;2022-11-03T11:47:23;5.43;;;3.77;;
14768;SDS011;7476;49.404;11.152;2022-11-03T11:50:19;7.37;;;4.10;;
14768;SDS011;7476;49.404;11.152;2022-11-03T11:52:49;6.40;;;3.70;;
14768;SDS011;7476;49.404;11.152;2022-11-03T11:55:21;9.27;;;3.77;;
14768;SDS011;7476;49.404;11.152;2022-11-03T11:57:53;7.47;;;4.00;;
14768;SDS011;7476;49.404;11.152;2022-11-03T12:00:22;8.00;;;4.00;;
14768;SDS011;7476;49.404;11.152;2022-11-03T12:02:50;8.43;;;4.03;;
14768;SDS011;7476;49.404;11.152;2022-11-03T12:05:20;4.87;;;3.80;;
14768;SDS011;7476;49.404;11.152;2022-11-03T12:07:48;8.40;;;3.57;;
14768;SDS011;7476;49.404;11.152;2022-11-03T12:10:17;6.57;;;4.07;;
14768;SDS011;7476;49.404;11.152;2022-11-03T12:12:46;7.20;;;4.00;;
14768;SDS011;7476;49.404;11.152;2022-11-03T12:18:27;7.23;;;4.00;;
14768;SDS011;7476;49.404;11.152;2022-11-03T12:20:59;5.67;;;4.47;;
14768;SDS011;7476;49.404;11.152;2022-11-03T12:23:33;6.53;;;4.57;;
14768;SDS011;7476;49.404;11.152;2022-11-03T12:26:01;6.20;;;4.40;;
14768;SDS011;7476;49.404;11.152;2022-11-03T12:28:29;7.17;;;4.13;;
14768;SDS011;7476;49.404;11.152;2022-11-03T12:30:57;6.43;;;3.83;;
14768;SDS011;7476;49.404;11.152;2022-11-03T12:33:24;7.87;;;4.10;;
14768;SDS011;7476;49.404;11.152;2022-11-03T12:35:51;7.50;;;4.23;;
14768;SDS011;7476;49.404;11.152;2022-11-03T12:38:19;5.17;;;4.30;;
14768;SDS011;7476;49.404;11.152;2022-11-03T12:40:46;7.17;;;4.30;;
14768;SDS011;7476;49.404;11.152;2022-11-03T12:43:13;6.87;;;3.60;;
14768;SDS011;7476;49.404;11.152;2022-11-03T12:45:40;5.27;;;4.30;;
14768;SDS011;7476;49.404;11.152;2022-11-03T12:48:07;7.77;;;4.20;;
14768;SDS011;7476;49.404;11.152;2022-11-03T12:50:34;5.73;;;3.87;;
14768;SDS011;7476;49.404;11.152;2022-11-03T12:53:03;5.97;;;3.70;;
14768;SDS011;7476;49.404;11.152;2022-11-03T12:55:32;5.67;;;4.00;;
14768;SDS011;7476;49.404;11.152;2022-11-03T12:57:59;7.30;;;4.00;;
14768;SDS011;7476;49.404;11.152;2022-11-03T13:00:27;5.47;;;4.27;;
14768;SDS011;7476;49.404;11.152;2022-11-03T13:02:53;6.80;;;4.23;;
14768;SDS011;7476;49.404;11.152;2022-11-03T13:05:20;5.53;;;3.83;;
14768;SDS011;7476;49.404;11.152;2022-11-03T13:07:47;7.83;;;4.10;;
14768;SDS011;7476;49.404;11.152;2022-11-03T13:10:13;8.87;;;4.47;;
14768;SDS011;7476;49.404;11.152;2022-11-03T13:12:42;6.73;;;3.97;;
14768;SDS011;7476;49.404;11.152;2022-11-03T13:15:09;6.57;;;4.20;;
14768;SDS011;7476;49.404;11.152;2022-11-03T13:17:37;6.23;;;4.00;;
14768;SDS011;7476;49.404;11.152;2022-11-03T13:20:05;8.43;;;4.53;;
14768;SDS011;7476;49.404;11.152;2022-11-03T13:22:32;8.47;;;4.17;;
14768;SDS011;7476;49.404;11.152;2022-11-03T13:24:59;7.37;;;4.30;;
14768;SDS011;7476;49.404;11.152;2022-11-03T13:27:26;8.87;;;4.90;;
14768;SDS011;7476;49.404;11.152;2022-11-03T13:29:54;9.90;;;4.33;;
14768;SDS011;7476;49.404;11.152;2022-11-03T13:32:21;4.93;;;4.00;;
14768;SDS011;7476;49.404;11.152;2022-11-03T13:34:47;6.47;;;4.23;;
14768;SDS011;7476;49.404;11.152;2022-11-03T13:37:14;6.13;;;4.10;;
14768;SDS011;7476;49.404;11.152;2022-11-03T13:39:41;9.07;;;4.50;;
14768;SDS011;7476;49.404;11.152;2022-11-03T13:42:07;6.13;;;4.23;;
14768;SDS011;7476;49.404;11.152;2022-11-03T13:44:34;5.33;;;4.60;;
14768;SDS011;7476;49.404;11.152;2022-11-03T13:47:02;5.83;;;4.13;;
14768;SDS011;7476;49.404;11.152;2022-11-03T13:49:29;6.93;;;4.67;;
14768;SDS011;7476;49.404;11.152;2022-11-03T13:51:56;6.97;;;4.53;;
14768;SDS011;7476;49.404;11.152;2022-11-03T13:54:23;9.30;;;4.83;;
14768;SDS011;7476;49.404;11.152;2022-11-03T13:56:49;5.73;;;4.70;;
14768;SDS011;7476;49.404;11.152;2022-11-03T13:59:16;7.47;;;4.77;;
14768;SDS011;7476;49.404;11.152;2022-11-03T14:01:43;7.60;;;4.83;;
14768;SDS011;7476;49.404;11.152;2022-11-03T14:04:11;7.37;;;4.20;;
14768;SDS011;7476;49.404;11.152;2022-11-03T14:06:37;7.37;;;4.50;;
14768;SDS011;7476;49.404;11.152;2022-11-03T14:09:04;6.77;;;4.70;;
14768;SDS011;7476;49.404;11.152;2022-11-03T14:11:31;5.70;;;4.90;;
14768;SDS011;7476;49.404;11.152;2022-11-03T14:14:15;7.47;;;5.10;;
14768;SDS011;7476;49.404;11.152;2022-11-03T14:16:42;6.50;;;4.70;;
14768;SDS011;7476;49.404;11.152;2022-11-03T14:19:08;7.80;;;4.90;;
14768;SDS011;7476;49.404;11.152;2022-11-03T14:21:36;7.63;;;5.13;;
14768;SDS011;7476;49.404;11.152;2022-11-03T14:24:06;6.17;;;4.87;;
14768;SDS011;7476;49.404;11.152;2022-11-03T14:26:33;5.87;;;4.97;;
14768;SDS011;7476;49.404;11.152;2022-11-03T14:29:00;8.83;;;5.30;;
14768;SDS011;7476;49.404;11.152;2022-11-03T14:31:27;8.40;;;5.83;;
14768;SDS011;7476;49.404;11.152;2022-11-03T14:33:54;7.87;;;5.97;;
14768;SDS011;7476;49.404;11.152;2022-11-03T14:36:22;7.73;;;6.20;;
14768;SDS011;7476;49.404;11.152;2022-11-03T14:38:49;6.47;;;5.70;;
14768;SDS011;7476;49.404;11.152;2022-11-03T14:41:16;7.17;;;6.00;;
14768;SDS011;7476;49.404;11.152;2022-11-03T14:43:56;7.10;;;5.67;;
14768;SDS011;7476;49.404;11.152;2022-11-03T14:46:23;10.47;;;6.33;;
14768;SDS011;7476;49.404;11.152;2022-11-03T14:48:50;7.87;;;6.37;;
14768;SDS011;7476;49.404;11.152;2022-11-03T14:51:18;9.43;;;6.77;;
14768;SDS011;7476;49.404;11.152;2022-11-03T14:53:46;6.73;;;6.10;;
14768;SDS011;7476;49.404;11.152;2022-11-03T14:56:13;7.73;;;6.53;;
14768;SDS011;7476;49.404;11.152;2022-11-03T14:58:40;12.23;;;6.67;;
14768;SDS011;7476;49.404;11.152;2022-11-03T15:01:07;13.20;;;7.07;;
14768;SDS011;7476;49.404;11.152;2022-11-03T15:03:34;10.20;;;7.07;;
14768;SDS011;7476;49.404;11.152;2022-11-03T15:06:00;8.30;;;7.03;;
14768;SDS011;7476;49.404;11.152;2022-11-03T15:08:27;8.27;;;6.57;;
14768;SDS011;7476;49.404;11.152;2022-11-03T15:10:57;11.00;;;7.07;;
14768;SDS011;7476;49.404;11.152;2022-11-03T15:13:24;9.77;;;7.00;;
14768;SDS011;7476;49.404;11.152;2022-11-03T15:15:50;9.87;;;7.10;;
14768;SDS011;7476;49.404;11.152;2022-11-03T15:18:17;9.33;;;7.33;;
14768;SDS011;7476;49.404;11.152;2022-11-03T15:20:44;8.77;;;7.40;;
14768;SDS011;7476;49.404;11.152;2022-11-03T15:23:11;9.77;;;7.37;;